Terminal Aerodrome Forecast
Issued by NWS Lake Charles, LA

Home | Current Version | Previous Version | Text Only | Print | Product List | Glossary On
Versions: 1 2 3 4 5 6 7 8 9 10 11 12 13 14 15
000
FTUS44 KLCH 221700
TAFAEX
TAF
KAEX 221720Z 2218/2318 23005KT P6SM FEW030 BKN200
     FM222100 19005KT P6SM VCTS SCT040CB
     FM230200 00000KT P6SM FEW060 SCT200=

USA.gov is the U.S. government's official web portal to all federal, state and local government web resources and services.